createdAt,value
2018-12-13T00:02:36.658Z,18.70
2018-12-13T00:07:41.034Z,17.23
2018-12-13T00:12:43.303Z,18.00
2018-12-13T00:17:45.545Z,19.07
2018-12-13T00:22:47.900Z,17.77
2018-12-13T00:27:50.147Z,17.73
2018-12-13T00:32:52.402Z,17.13
2018-12-13T00:37:54.661Z,18.40
2018-12-13T00:42:56.900Z,17.73
2018-12-13T00:47:59.250Z,18.80
2018-12-13T00:53:01.527Z,18.60
2018-12-13T00:58:03.886Z,17.03
2018-12-13T01:03:06.147Z,16.20
2018-12-13T01:08:08.375Z,15.27
2018-12-13T01:13:10.737Z,16.37
2018-12-13T01:18:12.979Z,16.43
2018-12-13T01:23:15.313Z,16.33
2018-12-13T01:28:17.609Z,14.83
2018-12-13T01:33:19.858Z,13.67
2018-12-13T01:38:22.114Z,13.57
2018-12-13T01:43:24.595Z,13.93
2018-12-13T01:48:26.849Z,14.43
2018-12-13T01:53:29.320Z,12.13
2018-12-13T01:58:31.561Z,11.67
2018-12-13T02:03:33.807Z,11.30
2018-12-13T02:08:36.060Z,11.63
2018-12-13T02:13:38.476Z,11.00
2018-12-13T02:18:40.842Z,12.33
2018-12-13T02:23:43.302Z,12.83
2018-12-13T02:28:45.560Z,13.13
2018-12-13T02:33:47.819Z,15.17
2018-12-13T02:38:50.116Z,17.43
2018-12-13T02:43:52.359Z,13.83
2018-12-13T02:49:08.270Z,13.50
2018-12-13T02:54:10.546Z,12.70
2018-12-13T02:59:12.794Z,12.13
2018-12-13T03:04:15.066Z,12.73
2018-12-13T03:09:17.316Z,12.03
2018-12-13T03:14:19.626Z,12.83
2018-12-13T03:19:21.867Z,14.23
2018-12-13T03:24:24.140Z,14.07
2018-12-13T03:29:26.508Z,14.37
2018-12-13T03:34:28.756Z,13.63
2018-12-13T03:39:31.039Z,14.00
2018-12-13T03:44:33.282Z,14.00
2018-12-13T03:49:35.683Z,15.23
2018-12-13T03:54:37.999Z,14.93
2018-12-13T03:59:40.389Z,15.57
2018-12-13T04:04:42.642Z,14.93
2018-12-13T04:09:45.056Z,16.60
2018-12-13T04:14:47.659Z,17.73
2018-12-13T04:19:49.935Z,16.50
2018-12-13T04:24:53.799Z,17.40
2018-12-13T04:29:56.078Z,16.73
2018-12-13T04:34:58.371Z,15.23
2018-12-13T04:40:00.642Z,16.63
2018-12-13T04:45:03.107Z,15.80
2018-12-13T04:50:06.167Z,15.70
2018-12-13T04:55:09.358Z,16.67
2018-12-13T05:00:12.002Z,16.10
2018-12-13T05:05:14.491Z,15.30
2018-12-13T05:10:28.307Z,15.63
2018-12-13T05:15:31.759Z,15.47
2018-12-13T05:20:34.146Z,15.97
2018-12-13T05:25:36.541Z,15.30
2018-12-13T05:30:39.078Z,16.13
2018-12-13T05:35:41.343Z,17.77
2018-12-13T05:40:43.675Z,17.63
2018-12-13T05:45:45.988Z,16.17
2018-12-13T05:50:48.640Z,16.23
2018-12-13T05:55:50.956Z,16.40
2018-12-13T06:00:53.226Z,17.13
2018-12-13T06:05:55.499Z,16.70
2018-12-13T06:10:57.838Z,16.57
2018-12-13T06:16:00.751Z,17.60
2018-12-13T06:21:03.173Z,17.47
2018-12-13T06:26:05.531Z,16.90
2018-12-13T06:31:07.815Z,16.90
2018-12-13T06:36:10.729Z,17.30
2018-12-13T06:41:13.203Z,18.00
2018-12-13T06:46:15.673Z,16.87
2018-12-13T06:51:17.945Z,17.93
2018-12-13T06:56:21.430Z,17.67
2018-12-13T07:01:23.696Z,18.73
2018-12-13T07:06:25.978Z,18.73
2018-12-13T07:11:28.328Z,18.70
2018-12-13T07:16:30.647Z,19.73
2018-12-13T07:21:32.966Z,20.47
2018-12-13T07:26:35.332Z,20.63
2018-12-13T07:31:37.630Z,20.17
2018-12-13T07:36:39.990Z,20.50
2018-12-13T07:41:43.045Z,19.57
2018-12-13T07:46:45.928Z,20.30
2018-12-13T07:51:48.220Z,20.93
2018-12-13T07:56:50.545Z,21.67
2018-12-13T08:01:53.171Z,22.33
2018-12-13T08:06:55.496Z,23.53
2018-12-13T08:11:57.779Z,22.73
2018-12-13T08:17:00.136Z,23.03
2018-12-13T08:22:04.510Z,21.63
2018-12-13T08:27:06.920Z,18.93
2018-12-13T08:32:09.200Z,18.67
2018-12-13T08:37:11.496Z,18.47
2018-12-13T08:42:13.763Z,18.73
2018-12-13T08:47:16.159Z,18.20
2018-12-13T08:52:18.468Z,19.37
2018-12-13T08:57:21.042Z,20.27
2018-12-13T09:02:23.304Z,19.17
2018-12-13T09:07:25.587Z,19.73
2018-12-13T09:12:27.871Z,19.00
2018-12-13T09:17:30.167Z,19.33
2018-12-13T09:22:32.447Z,20.43
2018-12-13T09:27:34.778Z,21.37
2018-12-13T09:32:37.263Z,21.63
2018-12-13T09:37:39.555Z,21.10
2018-12-13T09:42:41.831Z,22.23
2018-12-13T09:47:44.105Z,22.37
2018-12-13T09:52:46.490Z,20.13
2018-12-13T09:57:48.852Z,19.23
2018-12-13T10:02:51.327Z,19.53
2018-12-13T10:07:54.262Z,20.47
2018-12-13T10:12:57.011Z,20.20
2018-12-13T10:17:59.364Z,18.47
2018-12-13T10:23:01.660Z,18.33
2018-12-13T10:28:05.570Z,17.03
2018-12-13T10:33:07.859Z,18.20
2018-12-13T10:38:11.822Z,18.13
2018-12-13T10:43:14.266Z,20.20
2018-12-13T10:48:16.546Z,18.03
2018-12-13T10:53:19.247Z,18.17
2018-12-13T10:58:21.592Z,19.80
2018-12-13T11:03:29.614Z,18.93
2018-12-13T11:08:38.787Z,18.80
2018-12-13T11:13:41.263Z,18.43
2018-12-13T11:18:43.656Z,17.20
2018-12-13T11:23:45.940Z,18.00
2018-12-13T11:30:15.761Z,17.43
2018-12-13T11:35:18.067Z,17.13
2018-12-13T11:40:20.340Z,18.17
2018-12-13T11:45:22.759Z,18.73
2018-12-13T11:50:25.079Z,18.30
2018-12-13T11:55:32.520Z,16.47
2018-12-13T12:00:34.843Z,18.47
2018-12-13T12:05:37.138Z,19.10
2018-12-13T12:10:40.118Z,20.20
2018-12-13T12:15:42.587Z,18.73
2018-12-13T12:20:45.119Z,19.47
2018-12-13T12:25:48.350Z,18.07
2018-12-13T12:30:51.028Z,17.50
2018-12-13T12:35:53.299Z,17.63
2018-12-13T12:40:55.578Z,16.23
2018-12-13T12:45:57.853Z,16.07
2018-12-13T12:51:00.187Z,16.23
2018-12-13T12:56:02.608Z,14.23
2018-12-13T13:01:05.053Z,13.77
2018-12-13T13:06:07.322Z,14.07
2018-12-13T13:11:09.660Z,14.73
2018-12-13T13:16:11.987Z,13.13
2018-12-13T13:21:14.300Z,12.97
2018-12-13T13:26:16.599Z,13.10
2018-12-13T13:31:18.951Z,12.40
2018-12-13T13:36:21.981Z,12.10
2018-12-13T13:41:27.331Z,12.37
2018-12-13T13:46:29.780Z,13.90
2018-12-13T13:51:32.071Z,14.17
2018-12-13T13:56:34.413Z,13.53
2018-12-13T14:01:36.803Z,13.67
2018-12-13T14:06:39.120Z,13.60
2018-12-13T14:11:41.526Z,14.90
2018-12-13T14:16:43.992Z,15.67
2018-12-13T14:21:46.277Z,14.43
2018-12-13T14:26:49.165Z,14.97
2018-12-13T14:31:51.463Z,14.90
2018-12-13T14:36:53.899Z,14.60
2018-12-13T14:41:56.456Z,14.47
2018-12-13T14:47:00.856Z,15.20
2018-12-13T14:52:03.347Z,15.30
2018-12-13T14:57:05.640Z,16.17
2018-12-13T15:02:07.962Z,15.97
2018-12-13T15:07:10.347Z,16.00
2018-12-13T15:12:12.652Z,15.17
2018-12-13T15:17:15.008Z,16.03
2018-12-13T15:22:17.299Z,17.03
2018-12-13T15:27:19.607Z,15.27
2018-12-13T15:32:22.312Z,16.17
2018-12-13T15:37:24.659Z,16.60
2018-12-13T15:42:26.939Z,17.70
2018-12-13T15:47:29.215Z,17.23
2018-12-13T15:52:31.519Z,17.80
2018-12-13T15:57:35.721Z,17.63
2018-12-13T16:02:38.087Z,16.23
2018-12-13T16:07:41.127Z,16.87
2018-12-13T16:12:43.883Z,17.27
2018-12-13T16:17:46.345Z,17.43
2018-12-13T16:22:48.855Z,16.67
2018-12-13T16:27:51.298Z,16.23
2018-12-13T16:32:54.133Z,15.47
2018-12-13T16:37:56.690Z,15.37
2018-12-13T16:42:59.533Z,15.47
2018-12-13T16:48:02.614Z,15.93
2018-12-13T16:53:04.999Z,15.23
2018-12-13T16:58:07.283Z,15.33
2018-12-13T17:03:21.029Z,16.13
2018-12-13T17:08:24.521Z,15.53
2018-12-13T17:13:27.047Z,15.93
2018-12-13T17:18:29.394Z,14.70
2018-12-13T17:23:31.691Z,14.27
2018-12-13T17:28:34.060Z,14.40
2018-12-13T17:33:36.363Z,13.73
2018-12-13T17:38:38.630Z,13.37
2018-12-13T17:43:41.049Z,13.43
2018-12-13T17:48:43.376Z,12.03
2018-12-13T17:53:45.635Z,12.27
2018-12-13T17:58:48.066Z,13.03
2018-12-13T18:03:50.717Z,13.20
2018-12-13T18:08:53.015Z,13.93
2018-12-13T18:13:55.627Z,13.10
2018-12-13T18:18:59.477Z,12.77
2018-12-13T18:24:01.789Z,13.47
2018-12-13T18:29:05.248Z,12.53
2018-12-13T18:34:08.026Z,12.57
2018-12-13T18:39:10.373Z,13.13
2018-12-13T18:44:12.653Z,11.77
2018-12-13T18:49:15.067Z,12.07
2018-12-13T18:54:17.462Z,12.73
2018-12-13T18:59:19.850Z,11.10
2018-12-13T19:04:22.152Z,11.07
2018-12-13T19:09:24.498Z,9.30
2018-12-13T19:14:26.778Z,9.83
2018-12-13T19:19:29.974Z,9.43
2018-12-13T19:24:32.339Z,8.53
2018-12-13T19:29:34.606Z,8.30
2018-12-13T19:34:36.891Z,8.90
2018-12-13T19:39:39.853Z,9.43
2018-12-13T19:44:42.144Z,11.93
2018-12-13T19:49:45.167Z,11.17
2018-12-13T19:54:48.802Z,11.50
2018-12-13T19:59:52.542Z,12.07
2018-12-13T20:04:55.797Z,11.40
2018-12-13T20:09:58.255Z,11.13
2018-12-13T20:15:02.166Z,12.20
2018-12-13T20:20:05.367Z,12.00
2018-12-13T20:25:08.846Z,12.03
2018-12-13T20:30:12.250Z,13.27
2018-12-13T20:35:14.958Z,12.50
2018-12-13T20:40:17.335Z,13.53
2018-12-13T20:45:19.919Z,14.27
2018-12-13T20:50:22.175Z,15.97
2018-12-13T20:55:24.447Z,16.33
2018-12-13T21:00:26.727Z,17.73
2018-12-13T21:05:29.035Z,18.33
2018-12-13T21:10:31.478Z,17.40
2018-12-13T21:15:33.966Z,18.27
2018-12-13T21:20:36.236Z,19.10
2018-12-13T21:25:38.500Z,19.40
2018-12-13T21:30:41.604Z,19.90
2018-12-13T21:35:43.866Z,21.37
2018-12-13T21:40:46.176Z,20.80
2018-12-13T21:45:48.433Z,21.03
2018-12-13T21:50:50.875Z,21.17
2018-12-13T21:55:53.171Z,19.87
2018-12-13T22:00:55.443Z,20.87
2018-12-13T22:05:57.719Z,20.17
2018-12-13T22:11:01.270Z,20.20
2018-12-13T22:16:03.743Z,21.43
2018-12-13T22:21:06.077Z,20.47
2018-12-13T22:26:09.529Z,21.53
2018-12-13T22:31:12.011Z,20.33
2018-12-13T22:36:14.379Z,18.57
2018-12-13T22:41:16.678Z,19.70
2018-12-13T22:46:18.954Z,19.80
2018-12-13T22:51:21.263Z,20.07
2018-12-13T23:01:57.501Z,20.87
2018-12-13T23:06:59.907Z,20.63
2018-12-13T23:12:02.374Z,19.43
2018-12-13T23:17:05.923Z,19.43
2018-12-13T23:22:08.247Z,20.60
2018-12-13T23:27:11.050Z,18.67
2018-12-13T23:32:13.334Z,19.73
2018-12-13T23:37:16.698Z,18.20
2018-12-13T23:42:18.975Z,18.07
2018-12-13T23:47:21.315Z,16.67
2018-12-13T23:52:23.657Z,16.87
2018-12-13T23:57:25.934Z,17.93
